KCRS/CRS METAR and TAF weather

Enter ICAO airport designator
Station Type Date Time Source
KCRS METAR 2018/07/19 06:53 UTC NOAA

KCRS 190653Z AUTO 19008KT 10SM CLR 29/21 A2989 RMK AO2 SLP114 T02890206


Station Type Date Time Source
KCRS Decoded METAR 2018/07/19 06:53 UTC NOAA

CORSICANA AIRFIELD, TX, United States (KCRS) 32-01N 96-23W 133M
Jul 19, 2018 - 02:53 AM EDT / 2018.07.19 0653 UTC
Wind: from the S (190 degrees) at 9 MPH (8 KT):0
Visibility: 10 mile(s):0
Sky conditions: clear
Temperature: 84.0 F (28.9 C)
Dew Point: 69.1 F (20.6 C)
Relative Humidity: 60%
Pressure (altimeter): 29.89 in. Hg (1012 hPa)
ob: KCRS 190653Z AUTO 19008KT 10SM CLR 29/21 A2989 RMK AO2 SLP114 T02890206
cycle: 7

Station Type Date Time Source
KCRS TAF UTC NOAA

Error!


Example: see airport list